Time;durP1;ratioP1;P1;durP2;ratioP2;P2;SDS_P1;SDS_P2;PMS_P1;PMS_P2;Temp;Humidity;BMP_temperature;BMP_pressure;BME280_temperature;BME280_humidity;BME280_pressure;Samples;Min_cycle;Max_cycle;Signal;HPM_P1;HPM_P2
2022/07/08 05:50:30;;;;;;;17.60;4.12;;;;;;;16.94;79.03;98333.09;1871558;76;23275;-59
2022/07/08 05:52:57;;;;;;;7.87;3.00;;;;;;;17.00;78.45;98326.41;1816365;77;20950;-67
2022/07/08 05:55:24;;;;;;;16.05;3.77;;;;;;;17.14;77.96;98325.64;1812957;77;21237;-62
2022/07/08 05:57:51;;;;;;;12.50;2.95;;;;;;;17.30;77.71;98330.75;1817722;78;20876;-62
2022/07/08 06:00:19;;;;;;;9.75;3.08;;;;;;;17.48;77.31;98325.47;1810051;77;20915;-66
2022/07/08 06:02:46;;;;;;;11.55;3.10;;;;;;;17.70;76.62;98325.23;1813702;78;20916;-66
2022/07/08 06:05:12;;;;;;;12.03;3.20;;;;;;;17.92;76.34;98330.11;1827885;78;20994;-64
2022/07/08 06:07:40;;;;;;;10.58;3.42;;;;;;;18.12;75.92;98326.59;1827731;78;21117;-63
2022/07/08 06:10:08;;;;;;;8.33;3.33;;;;;;;18.28;75.56;98328.94;1827141;78;21522;-64
2022/07/08 06:12:35;;;;;;;9.75;2.80;;;;;;;18.45;75.12;98331.50;1826814;78;20904;-62
2022/07/08 06:15:05;;;;;;;5.65;2.08;;;;;;;18.61;75.13;98328.42;1827279;78;20915;-62
2022/07/08 06:17:31;;;;;;;5.80;2.17;;;;;;;18.76;74.68;98330.52;1827856;78;20998;-59
2022/07/08 06:19:59;;;;;;;7.67;2.87;;;;;;;18.91;73.41;98331.22;1827796;78;20829;-60
2022/07/08 06:22:26;;;;;;;7.35;2.77;;;;;;;19.07;72.52;98332.73;1827494;78;20868;-58
2022/07/08 06:24:55;;;;;;;6.87;2.60;;;;;;;19.21;71.64;98332.41;1826712;78;20955;-58
2022/07/08 06:27:21;;;;;;;13.35;2.95;;;;;;;19.29;70.30;98334.24;1827224;78;21628;-60
2022/07/08 06:29:48;;;;;;;5.20;2.45;;;;;;;19.34;69.88;98336.71;1827213;78;20895;-60
2022/07/08 06:32:14;;;;;;;5.12;2.00;;;;;;;19.42;70.01;98335.85;1827484;78;22067;-61
2022/07/08 06:34:41;;;;;;;4.95;2.37;;;;;;;19.49;68.16;98336.88;1827227;78;20888;-64
2022/07/08 06:37:08;;;;;;;9.28;2.02;;;;;;;19.58;66.87;98332.68;1827229;78;20884;-62
2022/07/08 06:39:36;;;;;;;9.33;2.15;;;;;;;19.66;65.12;98330.42;1827728;78;20916;-59
2022/07/08 06:42:04;;;;;;;4.72;1.85;;;;;;;19.71;64.50;98332.32;1827829;78;21003;-60
2022/07/08 06:44:32;;;;;;;3.90;2.20;;;;;;;19.79;63.78;98334.70;1788010;80;21111;-63
2022/07/08 06:46:59;;;;;;;9.25;2.72;;;;;;;19.86;63.83;98336.84;1747744;82;21432;-62
2022/07/08 06:49:27;;;;;;;11.10;2.45;;;;;;;19.94;64.65;98335.93;1763233;81;20933;-59
2022/07/08 06:51:53;;;;;;;9.90;2.50;;;;;;;19.97;64.54;98338.77;1760656;81;21520;-59
2022/07/08 06:54:35;;;;;;;8.13;2.92;;;;;;;20.00;64.40;98335.34;1761002;81;21357;-61
2022/07/08 06:57:09;;;;;;;7.03;2.22;;;;;;;20.03;64.50;98333.30;1760817;81;21248;-61
2022/07/08 06:59:38;;;;;;;4.80;2.42;;;;;;;20.07;63.55;98333.39;1761219;81;20878;-59
2022/07/08 07:02:04;;;;;;;5.17;2.37;;;;;;;20.10;62.35;98328.64;1760227;81;20976;-63
2022/07/08 07:04:32;;;;;;;12.53;2.58;;;;;;;20.14;62.81;98330.33;1760312;81;20973;-60
2022/07/08 07:06:59;;;;;;;6.47;2.47;;;;;;;20.19;62.01;98337.45;1759912;81;21488;-59
2022/07/08 07:09:25;;;;;;;7.20;1.60;;;;;;;20.22;61.99;98333.52;1761905;81;21803;-61
2022/07/08 07:11:52;;;;;;;4.40;2.12;;;;;;;20.27;55.90;98334.64;1761775;81;21016;-63
2022/07/08 07:14:18;;;;;;;4.92;1.50;;;;;;;20.33;57.05;98332.45;1761866;81;20958;-62
2022/07/08 07:16:45;;;;;;;6.78;1.82;;;;;;;20.37;54.89;98336.84;1761853;81;20969;-63
2022/07/08 07:19:12;;;;;;;2.47;1.15;;;;;;;20.39;54.14;98337.32;1762161;81;21523;-63
2022/07/08 07:21:38;;;;;;;4.22;1.45;;;;;;;20.45;54.50;98346.01;1762158;81;21397;-59
2022/07/08 07:24:06;;;;;;;2.87;1.20;;;;;;;20.53;53.92;98339.64;1763668;80;20977;-57
2022/07/08 07:26:33;;;;;;;6.12;1.90;;;;;;;20.61;52.52;98340.64;1776589;80;21035;-60
2022/07/08 07:29:00;;;;;;;4.25;1.90;;;;;;;20.65;53.05;98334.72;1744725;80;20906;-60
2022/07/08 07:31:26;;;;;;;2.40;1.47;;;;;;;20.71;54.68;98332.75;1732022;81;21540;-61
2022/07/08 07:33:53;;;;;;;4.00;1.57;;;;;;;20.74;52.01;98336.14;1744444;80;22116;-62
2022/07/08 07:36:19;;;;;;;5.03;1.90;;;;;;;20.75;52.86;98332.86;1778843;80;20836;-59
2022/07/08 07:38:47;;;;;;;5.90;1.85;;;;;;;20.82;54.00;98335.77;1775075;80;20888;-61
2022/07/08 07:41:13;;;;;;;4.47;1.75;;;;;;;20.91;53.87;98336.39;1782895;80;20887;-59
2022/07/08 07:43:41;;;;;;;6.22;1.60;;;;;;;20.99;54.14;98336.78;1779985;80;20934;-58
2022/07/08 07:46:08;;;;;;;3.58;1.20;;;;;;;21.07;53.49;98337.23;1767645;80;21236;-61
2022/07/08 07:48:34;;;;;;;8.20;1.67;;;;;;;21.15;50.86;98333.53;1760918;81;21486;-60
2022/07/08 07:51:01;;;;;;;3.85;1.90;;;;;;;21.25;51.01;98337.10;1774766;80;20912;-58
2022/07/08 07:53:27;;;;;;;2.30;1.65;;;;;;;21.33;50.80;98333.42;1775042;80;20947;-59
2022/07/08 07:55:54;;;;;;;4.55;1.72;;;;;;;21.36;51.38;98337.38;1774943;80;20991;-59
2022/07/08 07:58:21;;;;;;;4.87;1.40;;;;;;;21.42;50.93;98335.39;1775152;80;21165;-60
2022/07/08 08:00:49;;;;;;;4.10;1.82;;;;;;;21.50;50.02;98328.98;1775030;80;20877;-61
2022/07/08 08:03:16;;;;;;;2.98;1.35;;;;;;;21.61;50.43;98333.31;1775208;80;20916;-60
2022/07/08 08:05:42;;;;;;;3.08;1.30;;;;;;;21.69;49.57;98329.61;1775131;80;20972;-58
2022/07/08 08:08:10;;;;;;;4.78;1.50;;;;;;;21.79;49.65;98328.48;1775255;80;20869;-60
2022/07/08 08:10:37;;;;;;;3.08;1.75;;;;;;;21.91;49.43;98333.62;1774443;80;21250;-63
2022/07/08 08:13:04;;;;;;;3.92;1.80;;;;;;;22.00;49.99;98327.42;1775035;80;20936;-59
2022/07/08 08:15:31;;;;;;;4.45;1.40;;;;;;;22.05;49.31;98332.57;1775212;80;20849;-59
2022/07/08 08:17:57;;;;;;;4.47;1.52;;;;;;;22.13;49.23;98334.31;1775075;80;20853;-61
2022/07/08 08:20:25;;;;;;;5.10;1.30;;;;;;;22.19;49.31;98329.58;1775233;80;20940;-60
2022/07/08 08:22:52;;;;;;;3.62;1.40;;;;;;;22.23;47.22;98326.94;1775100;80;21117;-62
2022/07/08 08:25:20;;;;;;;3.02;1.20;;;;;;;22.24;46.17;98328.50;1775034;80;20873;-59
2022/07/08 08:27:47;;;;;;;3.10;1.15;;;;;;;22.26;47.19;98322.11;1775061;80;20916;-60
2022/07/08 08:30:15;;;;;;;4.05;1.07;;;;;;;22.32;46.97;98324.22;1775144;80;20936;-59
2022/07/08 08:32:42;;;;;;;1.65;0.90;;;;;;;22.39;45.78;98325.72;1749245;80;21107;-60
2022/07/08 08:35:09;;;;;;;2.80;1.10;;;;;;;22.44;43.76;98331.47;1775212;80;21808;-61
2022/07/08 08:37:35;;;;;;;6.03;1.30;;;;;;;22.44;44.79;98329.53;1775146;80;20932;-58
2022/07/08 08:40:04;;;;;;;3.27;1.30;;;;;;;22.46;45.84;98326.44;1775093;80;20988;-56
2022/07/08 08:42:31;;;;;;;5.97;1.00;;;;;;;22.53;45.07;98321.12;1775175;80;20897;-61
2022/07/08 08:45:02;;;;;;;4.10;1.35;;;;;;;22.60;44.83;98315.00;1775124;80;20889;-58
2022/07/08 08:47:31;;;;;;;4.85;1.12;;;;;;;22.66;44.11;98321.19;1775213;80;21157;-61
2022/07/08 08:50:53;;;;;;;2.50;1.30;;;;;;;22.69;42.59;98318.31;1773637;80;20989;-59
2022/07/08 08:52:26;;;;;;;2.60;1.10;;;;;;;22.64;43.55;98314.52;1767717;81;21036;-62
2022/07/08 08:54:52;;;;;;;2.98;1.20;;;;;;;22.71;44.43;98318.74;1772074;81;21506;-58
2022/07/08 08:57:20;;;;;;;5.90;1.40;;;;;;;22.84;44.57;98322.34;1772007;81;21420;-62
2022/07/08 08:59:46;;;;;;;2.12;0.98;;;;;;;22.95;43.31;98316.48;1771891;81;21075;-59
2022/07/08 09:02:14;;;;;;;5.90;1.10;;;;;;;23.07;42.87;98323.14;1762917;81;20972;-58
2022/07/08 09:04:41;;;;;;;1.70;1.00;;;;;;;23.17;42.39;98314.13;1822498;78;20996;-61
2022/07/08 09:07:08;;;;;;;3.25;0.90;;;;;;;23.29;43.75;98318.83;1809145;77;20951;-58
2022/07/08 09:09:34;;;;;;;3.83;1.20;;;;;;;23.44;42.62;98310.30;1753923;81;20970;-59
2022/07/08 09:12:19;;;;;;;1.95;1.12;;;;;;;23.57;43.02;98311.11;1833927;77;21302;-61
2022/07/08 09:14:50;;;;;;;3.22;1.12;;;;;;;23.71;42.09;98309.16;1845439;77;20994;-58
2022/07/08 09:17:17;;;;;;;3.33;1.20;;;;;;;23.79;42.93;98308.09;1845695;77;20907;-57
2022/07/08 09:19:50;;;;;;;2.75;1.20;;;;;;;23.92;42.56;98309.47;1847027;77;20915;-58
2022/07/08 09:22:16;;;;;;;4.87;1.25;;;;;;;24.05;42.51;98319.02;1847174;77;20959;-61
2022/07/08 09:24:43;;;;;;;2.00;1.00;;;;;;;24.11;40.16;98305.84;1831081;77;21106;-59
2022/07/08 09:27:11;;;;;;;2.75;1.20;;;;;;;24.14;40.62;98305.87;1826247;78;20837;-60
2022/07/08 09:29:40;;;;;;;2.27;0.95;;;;;;;24.22;39.54;98304.81;1819685;77;20876;-59
2022/07/08 09:32:14;;;;;;;2.33;1.00;;;;;;;24.27;38.31;98307.23;1826737;77;21038;-60
2022/07/08 09:34:42;;;;;;;4.97;1.00;;;;;;;24.28;38.29;98304.68;1824025;78;20982;-62
2022/07/08 09:37:15;;;;;;;3.52;1.37;;;;;;;24.36;39.07;98300.88;1829079;77;21231;-62
2022/07/08 09:39:44;;;;;;;4.20;1.30;;;;;;;24.58;40.13;98299.76;1860696;77;20988;-57
2022/07/08 09:42:14;;;;;;;3.15;1.20;;;;;;;24.89;40.58;98293.86;1835732;77;20996;-58
2022/07/08 09:44:42;;;;;;;4.12;1.30;;;;;;;25.07;37.51;98292.86;1833774;77;20999;-59
2022/07/08 09:47:13;;;;;;;5.53;1.10;;;;;;;24.90;35.55;98295.42;1839246;77;20960;-60
2022/07/08 09:49:42;;;;;;;2.08;1.05;;;;;;;24.62;38.59;98303.31;1821100;78;21244;-59
2022/07/08 09:52:10;;;;;;;4.25;0.82;;;;;;;24.46;37.51;98307.07;1817196;77;20865;-60
2022/07/08 09:54:36;;;;;;;5.17;1.05;;;;;;;24.28;37.60;98299.20;1772520;80;20880;-60
2022/07/08 09:57:08;;;;;;;4.33;1.40;;;;;;;24.14;39.16;98299.03;1776929;80;20954;-61
2022/07/08 09:59:35;;;;;;;2.77;1.00;;;;;;;24.09;39.33;98305.42;1777011;80;21061;-60
2022/07/08 10:02:04;;;;;;;2.83;1.02;;;;;;;24.01;39.82;98296.30;1776168;80;21979;-61
2022/07/08 10:04:30;;;;;;;7.08;1.20;;;;;;;23.97;40.15;98296.05;1772126;80;20864;-58
2022/07/08 10:06:58;;;;;;;5.30;1.00;;;;;;;23.89;40.89;98298.46;1772943;80;20880;-60
2022/07/08 10:09:26;;;;;;;3.47;1.00;;;;;;;23.80;40.34;98296.80;1773664;80;21461;-59
2022/07/08 10:11:54;;;;;;;3.47;1.25;;;;;;;23.71;40.74;98298.23;1730203;82;21002;-60
2022/07/08 10:14:20;;;;;;;6.85;1.50;;;;;;;23.59;40.97;98302.53;1818241;78;21268;-59
2022/07/08 10:16:47;;;;;;;2.60;1.10;;;;;;;23.47;41.42;98294.53;1815666;78;20944;-59
2022/07/08 10:19:28;;;;;;;2.85;1.35;;;;;;;23.37;42.97;98296.52;1815562;78;20944;-58
2022/07/08 10:21:56;;;;;;;6.37;1.30;;;;;;;23.30;42.41;98293.64;1815172;78;20920;-58
2022/07/08 10:24:27;;;;;;;2.42;1.07;;;;;;;23.25;42.45;98285.77;1806765;79;20915;-60
2022/07/08 10:26:59;;;;;;;4.70;1.40;;;;;;;23.24;42.71;98284.98;1804137;79;21442;-61
2022/07/08 10:29:29;;;;;;;2.75;1.35;;;;;;;23.20;42.69;98286.08;1804036;79;20957;-58
2022/07/08 10:31:57;;;;;;;2.22;1.22;;;;;;;23.17;42.51;98282.12;1803811;79;20911;-59
2022/07/08 10:34:34;;;;;;;6.33;1.40;;;;;;;23.14;42.68;98280.91;1804069;79;20916;-60
2022/07/08 10:37:03;;;;;;;3.58;1.30;;;;;;;23.13;42.81;98281.27;1804152;79;20851;-60
2022/07/08 10:39:40;;;;;;;3.33;1.10;;;;;;;23.17;42.36;98288.96;1804165;79;20911;-63
2022/07/08 10:42:08;;;;;;;2.35;1.17;;;;;;;23.18;42.32;98288.36;1803941;79;20998;-61
2022/07/08 10:44:49;;;;;;;2.17;1.20;;;;;;;23.18;43.00;98286.99;1804227;79;20903;-62
2022/07/08 10:47:28;;;;;;;3.58;1.22;;;;;;;23.21;43.68;98286.27;1804142;79;21039;-58
2022/07/08 10:50:06;;;;;;;3.33;1.40;;;;;;;23.25;43.93;98285.17;1804441;78;21458;-62
2022/07/08 10:52:40;;;;;;;4.08;1.17;;;;;;;23.27;44.05;98287.56;1804011;79;21111;-63
2022/07/08 10:55:15;;;;;;;2.85;1.20;;;;;;;23.23;42.86;98281.22;1804048;79;20880;-62
2022/07/08 10:57:55;;;;;;;2.60;1.30;;;;;;;23.13;42.58;98282.05;1804346;79;20864;-61
2022/07/08 11:00:22;;;;;;;1.98;1.30;;;;;;;23.01;42.96;98283.60;1804093;79;20911;-62
2022/07/08 11:02:50;;;;;;;5.17;1.60;;;;;;;22.94;41.74;98279.39;1803801;79;21415;-58
